Centerdale, Rhode Island
Current Conditions -  °F | °C
As of 12:55 AM on Monday 20 Oct 2014 (Local Time) from KSFZ Reporting Station
Clear Clear  
Wind Chill: 31°   Ceiling: Unl
Heat Index: 37°   Visibility: 10mi
Dew Point: 19°   Wind: 8mph
Humidity: 48%   Direction: 290°WNW
Pressure: 29.98"   Gusts: NA
Location:  41.8539°N, 71.4734°W
Report Text: KSFZ 200455Z 29007KT 10SM CLR 03/M07 A2998 RMK AO1
Loading
Personal Weather Stations






























Interactive Weather Map
Tropical Storm Tracking
New forecast layout! Learn more

10-Day Weather Forecast

Advertisements
Track Severe Weather on mobile